createdAt,value
2019-05-13T00:00:44.563Z,1000.87
2019-05-13T00:01:56.762Z,1000.89
2019-05-13T00:03:07.280Z,1000.88
2019-05-13T00:04:18.841Z,1000.88
2019-05-13T00:05:29.568Z,1000.9
2019-05-13T00:06:51.149Z,1000.91
2019-05-13T00:08:07.669Z,1000.88
2019-05-13T00:09:24.389Z,1000.92
2019-05-13T00:10:36.850Z,1000.9
2019-05-13T00:11:48.870Z,1000.94
2019-05-13T00:12:59.318Z,1000.95
2019-05-13T00:14:13.377Z,1000.94
2019-05-13T00:15:24.456Z,1000.96
2019-05-13T00:16:37.062Z,1000.95
2019-05-13T00:17:50.034Z,1000.97
2019-05-13T00:19:04.336Z,1000.98
2019-05-13T00:20:14.795Z,1000.98
2019-05-13T00:21:26.940Z,1001
2019-05-13T00:22:39.141Z,1001.01
2019-05-13T00:23:49.903Z,1001.05
2019-05-13T00:25:01.087Z,1001.06
2019-05-13T00:26:13.944Z,1001.09
2019-05-13T00:27:24.935Z,1001.07
2019-05-13T00:28:36.689Z,1001.08
2019-05-13T00:29:46.990Z,1001.08
2019-05-13T00:30:58.677Z,1001.13
2019-05-13T00:32:13.312Z,1001.1
2019-05-13T00:33:24.476Z,1001.1
2019-05-13T00:34:36.839Z,1001.11
2019-05-13T00:35:49.416Z,1001.13
2019-05-13T00:37:08.458Z,1001.16
2019-05-13T00:38:24.366Z,1001.18
2019-05-13T00:39:36.477Z,1001.16
2019-05-13T00:40:47.131Z,1001.2
2019-05-13T00:41:59.706Z,1001.21
2019-05-13T00:43:14.025Z,1001.19
2019-05-13T00:44:25.031Z,1001.21
2019-05-13T00:45:36.702Z,1001.21
2019-05-13T00:46:47.224Z,1001.24
2019-05-13T00:47:58.990Z,1001.27
2019-05-13T00:49:09.907Z,1001.28
2019-05-13T00:50:21.142Z,1001.27
2019-05-13T00:51:34.052Z,1001.31
2019-05-13T00:52:45.125Z,1001.33
2019-05-13T00:53:56.536Z,1001.31
2019-05-13T00:55:09.792Z,1001.34
2019-05-13T00:56:24.299Z,1001.35
2019-05-13T00:57:35.029Z,1001.38
2019-05-13T00:58:46.660Z,1001.37
2019-05-13T00:59:56.804Z,1001.36
2019-05-13T01:01:08.790Z,1001.41
2019-05-13T01:02:19.225Z,1001.41
2019-05-13T01:03:29.563Z,1001.44
2019-05-13T01:04:41.446Z,1001.43
2019-05-13T01:05:54.027Z,1001.39
2019-05-13T01:07:04.796Z,1001.4
2019-05-13T01:08:34.614Z,1001.39
2019-05-13T01:09:46.753Z,1001.4
2019-05-13T01:10:58.694Z,1001.38
2019-05-13T01:12:09.530Z,1001.35
2019-05-13T01:13:20.967Z,1001.36
2019-05-13T01:14:31.420Z,1001.38
2019-05-13T01:15:44.250Z,1001.41
2019-05-13T01:16:54.946Z,1001.44
2019-05-13T01:18:06.810Z,1001.51
2019-05-13T01:19:19.356Z,1001.47
2019-05-13T01:20:31.323Z,1001.5
2019-05-13T01:21:44.254Z,1001.5
2019-05-13T01:22:56.781Z,1001.51
2019-05-13T01:24:09.001Z,1001.53
2019-05-13T01:25:24.234Z,1001.52
2019-05-13T01:26:36.577Z,1001.52
2019-05-13T01:27:48.942Z,1001.52
2019-05-13T01:29:01.243Z,1001.52
2019-05-13T01:30:13.978Z,1001.54
2019-05-13T01:31:24.313Z,1001.53
2019-05-13T01:32:34.838Z,1001.57
2019-05-13T01:33:47.533Z,1001.61
2019-05-13T01:34:58.851Z,1001.6
2019-05-13T01:36:09.800Z,1001.64
2019-05-13T01:37:23.351Z,1001.63
2019-05-13T01:38:51.075Z,1001.68
2019-05-13T01:40:01.558Z,1001.67
2019-05-13T01:41:14.127Z,1001.68
2019-05-13T01:42:24.568Z,1001.73
2019-05-13T01:43:36.525Z,1001.72
2019-05-13T01:44:46.706Z,1001.74
2019-05-13T01:45:59.082Z,1001.74
2019-05-13T01:47:09.767Z,1001.73
2019-05-13T01:48:21.063Z,1001.74
2019-05-13T01:49:33.914Z,1001.76
2019-05-13T01:50:44.741Z,1001.75
2019-05-13T01:51:56.200Z,1001.76
2019-05-13T01:53:08.657Z,1001.81
2019-05-13T01:54:19.832Z,1001.79
2019-05-13T01:55:34.460Z,1001.78
2019-05-13T01:56:47.025Z,1001.8
2019-05-13T01:57:58.878Z,1001.83
2019-05-13T01:59:11.613Z,1001.83
2019-05-13T02:00:24.443Z,1001.84
2019-05-13T02:01:36.016Z,1001.85
2019-05-13T02:02:47.104Z,1001.86
2019-05-13T02:03:59.577Z,1001.93
2019-05-13T02:05:14.515Z,1001.92
2019-05-13T02:06:24.710Z,1001.92
2019-05-13T02:07:36.527Z,1001.94
2019-05-13T02:09:04.948Z,1001.92
2019-05-13T02:10:17.064Z,1001.99
2019-05-13T02:11:27.422Z,1002
2019-05-13T02:12:39.374Z,1002.02
2019-05-13T02:13:54.187Z,1002
2019-05-13T02:15:06.176Z,1002.02
2019-05-13T02:16:17.451Z,1002.04
2019-05-13T02:17:29.527Z,1002.05
2019-05-13T02:18:41.110Z,1002.09
2019-05-13T02:19:54.184Z,1002.12
2019-05-13T02:21:06.667Z,1002.12
2019-05-13T02:22:19.011Z,1002.14
2019-05-13T02:23:30.037Z,1002.11
2019-05-13T02:24:41.140Z,1002.1
2019-05-13T02:25:54.587Z,1002.07
2019-05-13T02:27:07.236Z,1002.11
2019-05-13T02:28:19.367Z,1002.13
2019-05-13T02:29:34.504Z,1002.12
2019-05-13T02:30:46.505Z,1002.11
2019-05-13T02:32:02.361Z,1002.15
2019-05-13T02:33:16.417Z,1002.12
2019-05-13T02:34:28.426Z,1002.12
2019-05-13T02:35:43.925Z,1002.13
2019-05-13T02:36:58.262Z,1002.11
2019-05-13T02:38:22.490Z,1002.13
2019-05-13T02:39:43.235Z,1002.17
2019-05-13T02:40:55.923Z,1002.15
2019-05-13T02:42:08.314Z,1002.13
2019-05-13T02:43:24.186Z,1002.11
2019-05-13T02:44:36.278Z,1002.17
2019-05-13T02:45:49.018Z,1002.2
2019-05-13T02:47:04.804Z,1002.14
2019-05-13T02:48:17.279Z,1002.26
2019-05-13T02:49:33.672Z,1002.25
2019-05-13T02:50:45.935Z,1002.24
2019-05-13T02:51:58.478Z,1002.28
2019-05-13T02:53:13.846Z,1002.29
2019-05-13T02:54:26.852Z,1002.3
2019-05-13T02:55:43.768Z,1002.3
2019-05-13T02:56:55.392Z,1002.28
2019-05-13T02:58:12.262Z,1002.28
2019-05-13T02:59:26.768Z,1002.31
2019-05-13T03:00:38.951Z,1002.31
2019-05-13T03:01:55.962Z,1002.3
2019-05-13T03:03:12.481Z,1002.27
2019-05-13T03:04:26.133Z,1002.31
2019-05-13T03:05:37.971Z,1002.32
2019-05-13T03:06:53.076Z,1002.36
2019-05-13T03:08:05.722Z,1002.35
2019-05-13T03:09:52.637Z,1002.37
2019-05-13T03:11:06.915Z,1002.38
2019-05-13T03:12:23.319Z,1002.4
2019-05-13T03:13:35.229Z,1002.44
2019-05-13T03:14:48.578Z,1002.43
2019-05-13T03:16:03.461Z,1002.49
2019-05-13T03:17:16.339Z,1002.49
2019-05-13T03:18:33.541Z,1002.55
2019-05-13T03:19:46.332Z,1002.55
2019-05-13T03:20:58.528Z,1002.59
2019-05-13T03:22:13.737Z,1002.64
2019-05-13T03:23:25.290Z,1002.7
2019-05-13T03:24:37.866Z,1002.71
2019-05-13T03:25:53.858Z,1002.72
2019-05-13T03:27:05.838Z,1002.71
2019-05-13T03:28:25.710Z,1002.72
2019-05-13T03:29:38.864Z,1002.78
2019-05-13T03:30:56.099Z,1002.79
2019-05-13T03:32:34.561Z,1002.85
2019-05-13T03:34:25.340Z,1002.87
2019-05-13T03:35:48.702Z,1002.85
2019-05-13T03:37:16.989Z,1002.85
2019-05-13T03:38:55.469Z,1002.83
2019-05-13T03:40:23.456Z,1002.84
2019-05-13T03:41:35.950Z,1002.84
2019-05-13T03:42:47.654Z,1002.79
2019-05-13T03:44:03.398Z,1002.81
2019-05-13T03:45:16.497Z,1002.82
2019-05-13T03:46:33.414Z,1002.85
2019-05-13T03:47:45.441Z,1002.84
2019-05-13T03:48:57.981Z,1002.86
2019-05-13T03:50:13.957Z,1002.86
2019-05-13T03:51:25.688Z,1002.83
2019-05-13T03:52:38.018Z,1002.85
2019-05-13T03:53:53.397Z,1002.85
2019-05-13T03:55:06.014Z,1002.84
2019-05-13T03:56:18.152Z,1002.89
2019-05-13T03:57:33.919Z,1002.88
2019-05-13T03:58:45.504Z,1002.91
2019-05-13T03:59:58.075Z,1002.89
2019-05-13T04:01:13.852Z,1002.92
2019-05-13T04:02:25.276Z,1002.96
2019-05-13T04:03:37.853Z,1002.97
2019-05-13T04:04:53.411Z,1002.99
2019-05-13T04:06:12.865Z,1003.02
2019-05-13T04:07:26.288Z,1003.01
2019-05-13T04:08:37.912Z,1003.05
2019-05-13T04:09:54.276Z,1003.03
2019-05-13T04:11:06.449Z,1003.04
2019-05-13T04:12:24.374Z,1003.05
2019-05-13T04:13:43.372Z,1003.03
2019-05-13T04:14:55.592Z,1003.09
2019-05-13T04:16:08.710Z,1003.11
2019-05-13T04:17:24.568Z,1003.13
2019-05-13T04:18:37.302Z,1003.15
2019-05-13T04:19:52.655Z,1003.15
2019-05-13T04:21:05.745Z,1003.15
2019-05-13T04:22:18.423Z,1003.14
2019-05-13T04:23:33.774Z,1003.18
2019-05-13T04:24:45.489Z,1003.22
2019-05-13T04:25:58.313Z,1003.22
2019-05-13T04:27:13.139Z,1003.22
2019-05-13T04:28:26.255Z,1003.29
2019-05-13T04:29:38.527Z,1003.31
2019-05-13T04:30:53.251Z,1003.31
2019-05-13T04:32:06.456Z,1003.31
2019-05-13T04:33:18.289Z,1003.35
2019-05-13T04:34:34.180Z,1003.38
2019-05-13T04:35:47.503Z,1003.36
2019-05-13T04:37:03.115Z,1003.41
2019-05-13T04:38:16.161Z,1003.42
2019-05-13T04:39:41.444Z,1003.43
2019-05-13T04:41:04.335Z,1003.46
2019-05-13T04:42:17.148Z,1003.45
2019-05-13T04:43:34.631Z,1003.41
2019-05-13T04:44:48.270Z,1003.43
2019-05-13T04:46:03.565Z,1003.41
2019-05-13T04:47:17.156Z,1003.46
2019-05-13T04:48:34.203Z,1003.45
2019-05-13T04:49:53.082Z,1003.42
2019-05-13T04:51:05.890Z,1003.42
2019-05-13T04:52:21.920Z,1003.42
2019-05-13T04:53:34.831Z,1003.39
2019-05-13T04:54:46.876Z,1003.42
2019-05-13T04:56:03.828Z,1003.45
2019-05-13T04:57:16.731Z,1003.43
2019-05-13T04:58:27.917Z,1003.45
2019-05-13T04:59:44.423Z,1003.46
2019-05-13T05:01:04.573Z,1003.47
2019-05-13T05:02:36.464Z,1003.49
2019-05-13T05:04:10.416Z,1003.57
2019-05-13T05:05:37.853Z,1003.57
2019-05-13T05:06:53.080Z,1003.56
2019-05-13T05:08:05.931Z,1003.56
2019-05-13T05:09:17.261Z,1003.59
2019-05-13T05:10:38.223Z,1003.55
2019-05-13T05:11:56.882Z,1003.59
2019-05-13T05:13:09.608Z,1003.59
2019-05-13T05:14:22.613Z,1003.61
2019-05-13T05:15:35.303Z,1003.63
2019-05-13T05:16:47.126Z,1003.64
2019-05-13T05:18:02.478Z,1003.69
2019-05-13T05:19:14.503Z,1003.67
2019-05-13T05:20:26.781Z,1003.72
2019-05-13T05:21:37.436Z,1003.75
2019-05-13T05:22:55.013Z,1003.73
2019-05-13T05:24:07.095Z,1003.71
2019-05-13T05:25:18.944Z,1003.78
2019-05-13T05:26:32.797Z,1003.81
2019-05-13T05:27:44.863Z,1003.77
2019-05-13T05:28:58.758Z,1003.8
2019-05-13T05:30:11.756Z,1003.83
2019-05-13T05:31:23.079Z,1003.85
2019-05-13T05:32:35.984Z,1003.86
2019-05-13T05:33:47.391Z,1003.91
2019-05-13T05:35:01.166Z,1003.87
2019-05-13T05:36:12.343Z,1003.89
2019-05-13T05:37:24.596Z,1003.93
2019-05-13T05:38:36.513Z,1003.94
2019-05-13T05:39:48.548Z,1003.91
2019-05-13T05:40:58.845Z,1003.89
2019-05-13T05:42:11.211Z,1003.91
2019-05-13T05:43:22.400Z,1003.94
2019-05-13T05:44:34.336Z,1003.92
2019-05-13T05:45:45.036Z,1003.93
2019-05-13T05:46:56.503Z,1003.96
2019-05-13T05:48:07.921Z,1003.9
2019-05-13T05:49:21.313Z,1003.89
2019-05-13T05:50:32.537Z,1003.93
2019-05-13T05:51:45.216Z,1003.92
2019-05-13T05:52:56.730Z,1003.93
2019-05-13T05:54:06.869Z,1003.93
2019-05-13T05:55:22.417Z,1003.96
2019-05-13T05:56:34.586Z,1003.98
2019-05-13T05:57:46.620Z,1003.92
2019-05-13T05:58:57.460Z,1003.92
2019-05-13T06:00:12.852Z,1003.95
2019-05-13T06:01:24.883Z,1003.96
2019-05-13T06:02:37.947Z,1004.02
2019-05-13T06:03:53.575Z,1003.99
2019-05-13T06:05:04.584Z,1004.01
2019-05-13T06:06:15.399Z,1004.03
2019-05-13T06:07:28.011Z,1004.03
2019-05-13T06:08:41.334Z,1004.04
2019-05-13T06:09:52.142Z,1004.06
2019-05-13T06:11:02.800Z,1004.09
2019-05-13T06:12:14.543Z,1004.12
2019-05-13T06:13:26.671Z,1004.14
2019-05-13T06:14:38.885Z,1004.14
2019-05-13T06:15:52.845Z,1004.11
2019-05-13T06:17:04.717Z,1004.13
2019-05-13T06:18:16.789Z,1004.17
2019-05-13T06:19:27.262Z,1004.19
2019-05-13T06:20:39.036Z,1004.14
2019-05-13T06:21:51.762Z,1004.15
2019-05-13T06:23:03.023Z,1004.16
2019-05-13T06:24:14.392Z,1004.14
2019-05-13T06:25:33.582Z,1004.17
2019-05-13T06:26:45.683Z,1004.14
2019-05-13T06:27:57.295Z,1004.19
2019-05-13T06:29:11.381Z,1004.19
2019-05-13T06:30:22.721Z,1004.19
2019-05-13T06:31:35.330Z,1004.18
2019-05-13T06:32:47.204Z,1004.17
2019-05-13T06:33:57.936Z,1004.16
2019-05-13T06:35:11.434Z,1004.22
2019-05-13T06:36:22.347Z,1004.19
2019-05-13T06:37:34.525Z,1004.21
2019-05-13T06:38:46.696Z,1004.21
2019-05-13T06:39:58.901Z,1004.22
2019-05-13T06:41:13.838Z,1004.25
2019-05-13T06:42:24.899Z,1004.3
2019-05-13T06:43:37.599Z,1004.25
2019-05-13T06:44:51.087Z,1004.25
2019-05-13T06:46:02.394Z,1004.29
2019-05-13T06:47:12.901Z,1004.27
2019-05-13T06:48:24.863Z,1004.3
2019-05-13T06:49:35.241Z,1004.28
2019-05-13T06:50:47.891Z,1004.27
2019-05-13T06:52:01.638Z,1004.27
2019-05-13T06:53:12.783Z,1004.23
2019-05-13T06:54:24.380Z,1004.29
2019-05-13T06:55:36.013Z,1004.28
2019-05-13T06:56:47.342Z,1004.31
2019-05-13T06:58:01.887Z,1004.31
2019-05-13T06:59:14.312Z,1004.35
2019-05-13T07:00:25.200Z,1004.39
2019-05-13T07:01:39.367Z,1004.34
2019-05-13T07:02:52.026Z,1004.36
2019-05-13T07:04:04.966Z,1004.37
2019-05-13T07:05:16.860Z,1004.39
2019-05-13T07:06:27.968Z,1004.39
2019-05-13T07:07:42.551Z,1004.39
2019-05-13T07:08:53.943Z,1004.41
2019-05-13T07:10:04.141Z,1004.43
2019-05-13T07:11:20.535Z,1004.41
2019-05-13T07:12:34.421Z,1004.43
2019-05-13T07:13:46.430Z,1004.45
2019-05-13T07:14:56.661Z,1004.47
2019-05-13T07:16:07.784Z,1004.48
2019-05-13T07:17:21.965Z,1004.51
2019-05-13T07:18:35.093Z,1004.47
2019-05-13T07:19:46.803Z,1004.46
2019-05-13T07:21:01.868Z,1004.49
2019-05-13T07:22:13.037Z,1004.5
2019-05-13T07:23:25.932Z,1004.49
2019-05-13T07:24:37.136Z,1004.46
2019-05-13T07:25:49.150Z,1004.49
2019-05-13T07:27:02.417Z,1004.51
2019-05-13T07:28:14.971Z,1004.54
2019-05-13T07:29:27.194Z,1004.54
2019-05-13T07:30:42.086Z,1004.57
2019-05-13T07:31:54.465Z,1004.56
2019-05-13T07:33:06.594Z,1004.56
2019-05-13T07:34:17.911Z,1004.58
2019-05-13T07:35:38.008Z,1004.55
2019-05-13T07:37:03.568Z,1004.54
2019-05-13T07:38:14.242Z,1004.55
2019-05-13T07:39:25.166Z,1004.57
2019-05-13T07:40:37.829Z,1004.6
2019-05-13T07:41:49.220Z,1004.6
2019-05-13T07:43:05.115Z,1004.62
2019-05-13T07:44:17.418Z,1004.56
2019-05-13T07:45:32.675Z,1004.6
2019-05-13T07:46:45.313Z,1004.6
2019-05-13T07:47:57.310Z,1004.56
2019-05-13T07:49:32.468Z,1004.58
2019-05-13T07:50:56.149Z,1004.58
2019-05-13T07:52:14.634Z,1004.52
2019-05-13T07:53:25.642Z,1004.51
2019-05-13T07:54:37.503Z,1004.53
2019-05-13T07:55:52.207Z,1004.55
2019-05-13T07:57:04.864Z,1004.57
2019-05-13T07:58:17.375Z,1004.56
2019-05-13T07:59:36.917Z,1004.55
2019-05-13T08:00:49.203Z,1004.54
2019-05-13T08:02:01.991Z,1004.55
2019-05-13T08:03:15.021Z,1004.53
2019-05-13T08:04:26.898Z,1004.55
2019-05-13T08:05:38.920Z,1004.53
2019-05-13T08:06:52.489Z,1004.58
2019-05-13T08:08:04.682Z,1004.55
2019-05-13T08:09:17.046Z,1004.55
2019-05-13T08:10:32.231Z,1004.54
2019-05-13T08:11:59.634Z,1004.53
2019-05-13T08:13:22.569Z,1004.51
2019-05-13T08:14:34.384Z,1004.51
2019-05-13T08:15:48.610Z,1004.51
2019-05-13T08:17:04.746Z,1004.52
2019-05-13T08:18:16.798Z,1004.52
2019-05-13T08:19:27.448Z,1004.55
2019-05-13T08:20:42.291Z,1004.52
2019-05-13T08:21:55.286Z,1004.56
2019-05-13T08:23:07.434Z,1004.55
2019-05-13T08:24:22.723Z,1004.58
2019-05-13T08:25:34.302Z,1004.62
2019-05-13T08:26:49.840Z,1004.56
2019-05-13T08:28:02.750Z,1004.62
2019-05-13T08:29:15.242Z,1004.6
2019-05-13T08:30:26.913Z,1004.61
2019-05-13T08:31:41.187Z,1004.63
2019-05-13T08:32:52.427Z,1004.66
2019-05-13T08:34:04.691Z,1004.61
2019-05-13T08:35:17.030Z,1004.59
2019-05-13T08:36:27.886Z,1004.57
2019-05-13T08:37:43.263Z,1004.61
2019-05-13T08:38:54.941Z,1004.6
2019-05-13T08:40:07.213Z,1004.61
2019-05-13T08:41:23.974Z,1004.53
2019-05-13T08:42:35.139Z,1004.59
2019-05-13T08:43:46.781Z,1004.68
2019-05-13T08:44:57.751Z,1004.64
2019-05-13T08:46:12.577Z,1004.65
2019-05-13T08:47:24.742Z,1004.71
2019-05-13T08:48:36.630Z,1004.69
2019-05-13T08:49:48.137Z,1004.66
2019-05-13T08:51:04.398Z,1004.72
2019-05-13T08:52:16.903Z,1004.73
2019-05-13T08:53:27.257Z,1004.74
2019-05-13T08:54:41.507Z,1004.78
2019-05-13T08:55:53.009Z,1004.75
2019-05-13T08:57:04.549Z,1004.71
2019-05-13T08:58:16.942Z,1004.73
2019-05-13T08:59:31.448Z,1004.71
2019-05-13T09:00:42.748Z,1004.71
2019-05-13T09:01:59.438Z,1004.71
2019-05-13T09:03:12.239Z,1004.74
2019-05-13T09:04:24.476Z,1004.77
2019-05-13T09:05:36.711Z,1004.77
2019-05-13T09:06:48.957Z,1004.73
2019-05-13T09:08:02.516Z,1004.76
2019-05-13T09:09:14.427Z,1004.78
2019-05-13T09:10:24.906Z,1004.77
2019-05-13T09:11:37.068Z,1004.8
2019-05-13T09:12:52.326Z,1004.73
2019-05-13T09:14:04.734Z,1004.75
2019-05-13T09:15:16.535Z,1004.7
2019-05-13T09:16:27.399Z,1004.72
2019-05-13T09:17:42.513Z,1004.71
2019-05-13T09:18:54.588Z,1004.73
2019-05-13T09:20:08.757Z,1004.72
2019-05-13T09:21:19.254Z,1004.67
2019-05-13T09:22:32.319Z,1004.7
2019-05-13T09:23:44.152Z,1004.68
2019-05-13T09:24:56.181Z,1004.7
2019-05-13T09:26:07.384Z,1004.7
2019-05-13T09:27:20.254Z,1004.7
2019-05-13T09:28:34.706Z,1004.72
2019-05-13T09:29:46.890Z,1004.7
2019-05-13T09:31:01.691Z,1004.7
2019-05-13T09:32:13.161Z,1004.7
2019-05-13T09:33:24.424Z,1004.72
2019-05-13T09:34:35.523Z,1004.76
2019-05-13T09:37:47.330Z,1004.68
2019-05-13T09:39:01.756Z,1004.69
2019-05-13T09:40:13.204Z,1004.65
2019-05-13T09:41:25.249Z,1004.66
2019-05-13T09:42:50.999Z,1004.66
2019-05-13T09:46:02.731Z,1004.65
2019-05-13T09:47:14.776Z,1004.65
2019-05-13T09:48:32.717Z,1004.63
2019-05-13T09:49:45.207Z,1004.61
2019-05-13T09:50:57.436Z,1004.63
2019-05-13T09:52:12.728Z,1004.62
2019-05-13T09:53:25.336Z,1004.61
2019-05-13T09:54:37.755Z,1004.63
2019-05-13T09:55:52.921Z,1004.62
2019-05-13T09:57:05.037Z,1004.6
2019-05-13T09:58:17.001Z,1004.63
2019-05-13T09:59:33.764Z,1004.59
2019-05-13T10:00:45.105Z,1004.6
2019-05-13T10:01:58.063Z,1004.57
2019-05-13T10:03:13.936Z,1004.62
2019-05-13T10:04:33.677Z,1004.64
2019-05-13T10:05:46.419Z,1004.65
2019-05-13T10:07:01.939Z,1004.59
2019-05-13T10:08:15.036Z,1004.67
2019-05-13T10:09:27.319Z,1004.63
2019-05-13T10:10:42.201Z,1004.67
2019-05-13T10:11:53.352Z,1004.7
2019-05-13T10:15:05.533Z,1004.67
2019-05-13T10:16:17.932Z,1004.69
2019-05-13T10:17:32.090Z,1004.65
2019-05-13T10:18:45.480Z,1004.68
2019-05-13T10:19:57.498Z,1004.71
2019-05-13T10:21:07.473Z,1004.68
2019-05-13T10:22:17.461Z,1004.74
2019-05-13T10:23:33.084Z,1004.71
2019-05-13T10:24:44.913Z,1004.7
2019-05-13T10:25:56.763Z,1004.67
2019-05-13T10:27:08.420Z,1004.67
2019-05-13T10:28:25.443Z,1004.7
2019-05-13T10:29:37.907Z,1004.7
2019-05-13T10:30:53.222Z,1004.67
2019-05-13T10:32:04.423Z,1004.68
2019-05-13T10:33:14.961Z,1004.69
2019-05-13T10:34:27.704Z,1004.7
2019-05-13T10:35:42.445Z,1004.68
2019-05-13T10:36:55.415Z,1004.67
2019-05-13T10:38:07.585Z,1004.66
2019-05-13T10:39:24.086Z,1004.66
2019-05-13T10:40:33.800Z,1004.65
2019-05-13T10:41:46.264Z,1004.7
2019-05-13T10:42:57.621Z,1004.69
2019-05-13T10:44:30.347Z,1004.68
2019-05-13T10:45:42.837Z,1004.69
2019-05-13T10:46:55.664Z,1004.67
2019-05-13T10:48:10.377Z,1004.69
2019-05-13T10:49:24.920Z,1004.61
2019-05-13T10:50:38.198Z,1004.66
2019-05-13T10:51:52.399Z,1004.69
2019-05-13T10:53:03.671Z,1004.73
2019-05-13T10:54:15.177Z,1004.68
2019-05-13T10:55:27.003Z,1004.68
2019-05-13T10:56:42.455Z,1004.73
2019-05-13T10:58:02.323Z,1004.78
2019-05-13T10:59:15.145Z,1004.79
2019-05-13T11:00:28.113Z,1004.78
2019-05-13T11:01:42.597Z,1004.73
2019-05-13T11:02:52.735Z,1004.74
2019-05-13T11:04:02.861Z,1004.71
2019-05-13T11:05:18.559Z,1004.72
2019-05-13T11:06:33.269Z,1004.72
2019-05-13T11:07:44.498Z,1004.78
2019-05-13T11:08:57.010Z,1004.77
2019-05-13T11:10:09.748Z,1004.74
2019-05-13T11:11:22.754Z,1004.74
2019-05-13T11:12:35.707Z,1004.72
2019-05-13T11:13:54.295Z,1004.75
2019-05-13T11:15:22.584Z,1004.72
2019-05-13T11:16:46.634Z,1004.76
2019-05-13T11:18:03.150Z,1004.74
2019-05-13T11:19:30.127Z,1004.74
2019-05-13T11:20:44.782Z,1004.76
2019-05-13T11:21:54.737Z,1004.73
2019-05-13T11:23:07.935Z,1004.72
2019-05-13T11:24:23.561Z,1004.68
2019-05-13T11:25:35.438Z,1004.73
2019-05-13T11:26:46.889Z,1004.7
2019-05-13T11:27:58.641Z,1004.7
2019-05-13T11:29:11.359Z,1004.77
2019-05-13T11:30:23.547Z,1004.84
2019-05-13T11:31:34.857Z,1004.89
2019-05-13T11:32:47.924Z,1004.83
2019-05-13T11:34:01.767Z,1004.76
2019-05-13T11:35:12.950Z,1004.63
2019-05-13T11:36:26.046Z,1004.6
2019-05-13T11:37:43.655Z,1004.63
2019-05-13T11:38:55.094Z,1004.86
2019-05-13T11:40:07.835Z,1004.66
2019-05-13T11:41:22.389Z,1004.54
2019-05-13T11:42:35.389Z,1004.79
2019-05-13T11:44:07.056Z,1004.58
2019-05-13T11:45:25.852Z,1004.51
2019-05-13T11:46:36.868Z,1004.46
2019-05-13T11:47:53.386Z,1004.64
2019-05-13T11:49:05.524Z,1004.48
2019-05-13T11:50:17.667Z,1004.71
2019-05-13T11:51:31.938Z,1004.64
2019-05-13T11:54:46.968Z,1004.47
2019-05-13T11:55:59.028Z,1004.54
2019-05-13T11:57:12.805Z,1004.52
2019-05-13T11:58:23.312Z,1004.52
2019-05-13T11:59:35.641Z,1004.5
2019-05-13T12:00:48.408Z,1004.61
2019-05-13T12:02:04.311Z,1004.61
2019-05-13T12:03:18.598Z,1004.69
2019-05-13T12:04:34.316Z,1004.8
2019-05-13T12:05:48.426Z,1004.74
2019-05-13T12:07:05.004Z,1004.71
2019-05-13T12:08:18.601Z,1004.63
2019-05-13T12:09:34.136Z,1004.69
2019-05-13T12:10:44.227Z,1004.67
2019-05-13T12:11:56.937Z,1004.61
2019-05-13T12:13:13.995Z,1004.45
2019-05-13T12:14:56.716Z,1004.7
2019-05-13T12:16:57.394Z,1004.65
2019-05-13T12:18:11.625Z,1004.57
2019-05-13T12:19:26.330Z,1004.74
2019-05-13T12:20:36.305Z,1004.49
2019-05-13T12:21:48.141Z,1004.45
2019-05-13T12:23:03.621Z,1004.51
2019-05-13T12:24:15.980Z,1004.55
2019-05-13T12:25:28.069Z,1004.59
2019-05-13T12:26:44.313Z,1004.6
2019-05-13T12:27:58.324Z,1004.67
2019-05-13T12:29:18.462Z,1004.63
2019-05-13T12:30:33.789Z,1004.62
2019-05-13T12:31:46.842Z,1004.71
2019-05-13T12:33:03.689Z,1004.92
2019-05-13T12:34:16.390Z,1004.89
2019-05-13T12:35:28.177Z,1004.57
2019-05-13T12:36:43.203Z,1004.6
2019-05-13T12:37:53.581Z,1004.77
2019-05-13T12:39:03.584Z,1004.64
2019-05-13T12:40:16.947Z,1004.64
2019-05-13T12:41:34.433Z,1004.55
2019-05-13T12:42:47.160Z,1004.88
2019-05-13T12:44:02.582Z,1004.47
2019-05-13T12:45:15.793Z,1004.51
2019-05-13T12:46:27.747Z,1004.45
2019-05-13T12:47:37.723Z,1004.46
2019-05-13T12:48:53.679Z,1004.51
2019-05-13T12:50:06.647Z,1004.47
2019-05-13T12:51:18.922Z,1004.79
2019-05-13T12:52:33.116Z,1004.7
2019-05-13T12:53:46.719Z,1004.63
2019-05-13T12:57:03.905Z,1004.56
2019-05-13T12:58:24.018Z,1004.63
2019-05-13T12:59:37.046Z,1004.63
2019-05-13T13:00:53.155Z,1004.61
2019-05-13T13:02:04.440Z,1004.68
2019-05-13T13:03:18.467Z,1004.69
2019-05-13T13:04:33.732Z,1004.59
2019-05-13T13:06:30.315Z,1004.64
2019-05-13T13:09:54.090Z,1004.45
2019-05-13T13:11:04.251Z,1004.37
2019-05-13T13:12:14.839Z,1004.49
2019-05-13T13:14:04.037Z,1004.73
2019-05-13T13:15:36.771Z,1004.43
2019-05-13T13:16:55.885Z,1004.7
2019-05-13T13:18:13.883Z,1004.63
2019-05-13T13:19:25.297Z,1004.67
2019-05-13T13:20:42.029Z,1004.61
2019-05-13T13:22:15.065Z,1004.57
2019-05-13T13:23:33.999Z,1004.3
2019-05-13T13:24:51.456Z,1004.6
2019-05-13T13:26:15.598Z,1004.47
2019-05-13T13:27:57.692Z,1004.51
2019-05-13T13:29:26.576Z,1004.56
2019-05-13T13:30:39.382Z,1004.53
2019-05-13T13:31:56.056Z,1004.46
2019-05-13T13:33:08.237Z,1004.58
2019-05-13T13:34:25.733Z,1004.43
2019-05-13T13:35:44.043Z,1004.63
2019-05-13T13:37:08.665Z,1004.57
2019-05-13T13:38:24.368Z,1004.62
2019-05-13T13:39:38.016Z,1004.74
2019-05-13T13:40:55.728Z,1004.64
2019-05-13T13:42:12.423Z,1004.59
2019-05-13T13:43:24.581Z,1004.52
2019-05-13T13:44:44.777Z,1004.69
2019-05-13T13:46:31.626Z,1004.75
2019-05-13T13:48:03.447Z,1004.61
2019-05-13T13:49:18.474Z,1004.63
2019-05-13T13:50:35.597Z,1004.63
2019-05-13T13:51:56.181Z,1004.62
2019-05-13T13:53:06.411Z,1004.6
2019-05-13T13:54:26.581Z,1004.48
2019-05-13T13:55:38.913Z,1004.55
2019-05-13T13:56:56.587Z,1004.52
2019-05-13T13:58:07.762Z,1004.62
2019-05-13T13:59:26.162Z,1004.5
2019-05-13T14:01:38.027Z,1004.72
2019-05-13T14:02:48.098Z,1004.66
2019-05-13T14:04:07.092Z,1004.71
2019-05-13T14:05:24.544Z,1004.95
2019-05-13T14:08:35.136Z,1005.25
2019-05-13T14:09:46.771Z,1005.34
2019-05-13T14:10:58.869Z,1005.15
2019-05-13T14:12:12.223Z,1005.23
2019-05-13T14:13:24.764Z,1005.26
2019-05-13T14:14:35.359Z,1005.22
2019-05-13T14:15:46.762Z,1005.11
2019-05-13T14:16:58.045Z,1005.18
2019-05-13T14:18:11.604Z,1005.13
2019-05-13T14:19:27.294Z,1005.31
2019-05-13T14:20:42.994Z,1005.26
2019-05-13T14:21:55.682Z,1005.05
2019-05-13T14:23:06.992Z,1005.14
2019-05-13T14:24:17.891Z,1005.13
2019-05-13T14:25:29.271Z,1004.87
2019-05-13T14:26:43.357Z,1005.31
2019-05-13T14:27:56.306Z,1005.27
2019-05-13T14:29:07.258Z,1004.52
2019-05-13T14:30:17.774Z,1004.82
